Anemona — 3EUT9 — position and weather

sailwx.info

Track history (hours):
 
Tides and Currents Weather Stations Pressure Air Temp Water Temp Dewpoint Dewpoint Depression Visibility Wind Speed Wind Dir Waves Ship Positions

Anemona

Last reported at 2017-Apr-05 22:35 UTC. Time now 2017-Apr-25 00:52 UTC.
Position S 27°05' E 153°52'.
Warning: this ship's position is 19 days out of date.

Length 192 m; draft 11.3 m.

Type: Cargo ship. MMSI: 355664000.

Date/timePositionNaut miles runAvg speedWind from/ knotsBaromVisibWave heightAir tempDewpointWater temp
2017-Apr-05 22:35S 27°05' E 153°52'211.1
2017-Apr-05 22:26S 27°07' E 153°52'611.1
2017-Apr-05 21:55S 27°13' E 153°51'2211.3
2017-Apr-05 19:58S 27°35' E 153°50'511.3
2017-Apr-05 19:30S 27°40' E 153°50'611.1
2017-Apr-05 19:00S 27°46' E 153°49'611.1
2017-Apr-05 18:30S 27°51' E 153°49'611.2
2017-Apr-05 18:00S 27°57' E 153°48'611.1
2017-Apr-05 17:28S 28°03' E 153°48'27010.7
2017-Apr-04 16:06S 32°26' E 152°39'111.6
2017-Apr-04 16:00S 32°27' E 152°38'611.7
2017-Apr-04 15:30S 32°33' E 152°36'611.6
2017-Apr-04 15:00S 32°38' E 152°33'611.5
2017-Apr-04 14:30S 32°43' E 152°30'1211.6
2017-Apr-04 13:30S 32°54' E 152°26'510.7
2017-Apr-04 13:00S 32°59' E 152°24'510.5
2017-Apr-04 12:30S 33°04' E 152°21'510.8
2017-Apr-04 12:00S 33°09' E 152°18'610.7
2017-Apr-04 11:27S 33°14' E 152°15'  
Track history (hours):
 
Tides and Currents Weather Stations Pressure Air Temp Water Temp Dewpoint Dewpoint Depression Visibility Wind Speed Wind Dir Waves Ship Positions

Anemona

Last reported at 2017-Apr-05 22:35 UTC. Time now 2017-Apr-25 00:52 UTC.
Position S 27°05' E 153°52'.
Warning: this ship's position is 19 days out of date.

Length 192 m; draft 11.3 m.

Type: Cargo ship. MMSI: 355664000.

Date/timePositionNaut miles runAvg speedWind from/ knotsBaromVisibWave heightAir tempDewpointWater temp
2017-Apr-05 22:35S 27°05' E 153°52'211.1
2017-Apr-05 22:26S 27°07' E 153°52'611.1
2017-Apr-05 21:55S 27°13' E 153°51'2211.3
2017-Apr-05 19:58S 27°35' E 153°50'511.3
2017-Apr-05 19:30S 27°40' E 153°50'611.1
2017-Apr-05 19:00S 27°46' E 153°49'611.1
2017-Apr-05 18:30S 27°51' E 153°49'611.2
2017-Apr-05 18:00S 27°57' E 153°48'611.1
2017-Apr-05 17:28S 28°03' E 153°48'27010.7
2017-Apr-04 16:06S 32°26' E 152°39'111.6
2017-Apr-04 16:00S 32°27' E 152°38'611.7
2017-Apr-04 15:30S 32°33' E 152°36'611.6
2017-Apr-04 15:00S 32°38' E 152°33'611.5
2017-Apr-04 14:30S 32°43' E 152°30'1211.6
2017-Apr-04 13:30S 32°54' E 152°26'510.7
2017-Apr-04 13:00S 32°59' E 152°24'510.5
2017-Apr-04 12:30S 33°04' E 152°21'510.8
2017-Apr-04 12:00S 33°09' E 152°18'610.7
2017-Apr-04 11:27S 33°14' E 152°15'  

Dump ship's entire track history